EFW7JD LEPA-EGKK
Flight info
| Callsign | EFW7JD |
|---|---|
| Flight time | N/A |
| Altitude | 36000 |
| Route | DRAGO DCT PAPOS DCT UMURE DCT XIKEN DCT KARES DCT ARBEK DCT REBUL DCT USKAR DCT MOPAS DCT GIROM DCT GONUP DCT MANAK DCT TIRAV DCT DIXAD DCT NTS DCT BAKUL DCT REN DCT UPALO DCT REVTU DCT ODREP UP88 VASUX |
| Aircraft | A320/M-SDE3FGHIRWY/LB1 |
Departure
| Time | 2026-04-30 19:22 |
|---|---|
| Airport | Palma de Mallorca Airport (LEPA) |
Arrival
| Time | N/A |
|---|---|
| Airport | London Gatwick Airport (EGKK) |
| Time | Latitude | Longitude | Altitude | Speed | Heading |
|---|---|---|---|---|---|
| 2026-04-30 18:20 | 39.55099 | 2.72903 | 38 ft | 0 kts | 163° |
| 2026-04-30 19:05 | 39.55127 | 2.72892 | 38 ft | 2 kts | 163° |
| 2026-04-30 19:06 | 39.55159 | 2.72854 | 37 ft | 4 kts | 75° |
| 2026-04-30 19:06 | 39.55148 | 2.72823 | 38 ft | 4 kts | 57° |
| 2026-04-30 19:06 | 39.55139 | 2.72803 | 38 ft | 0 kts | 59° |
| 2026-04-30 19:10 | 39.55148 | 2.72824 | 38 ft | 3 kts | 59° |
| 2026-04-30 19:10 | 39.55184 | 2.72900 | 36 ft | 7 kts | 59° |
| 2026-04-30 19:11 | 39.55211 | 2.72958 | 36 ft | 9 kts | 59° |
| 2026-04-30 19:11 | 39.55287 | 2.73115 | 37 ft | 12 kts | 59° |
| 2026-04-30 19:11 | 39.55334 | 2.73216 | 38 ft | 14 kts | 59° |
| 2026-04-30 19:12 | 39.55388 | 2.73331 | 38 ft | 16 kts | 58° |
| 2026-04-30 19:12 | 39.55450 | 2.73460 | 38 ft | 16 kts | 58° |
| 2026-04-30 19:12 | 39.55493 | 2.73553 | 38 ft | 10 kts | 54° |
| 2026-04-30 19:13 | 39.55626 | 2.73507 | 38 ft | 10 kts | 353° |
| 2026-04-30 19:13 | 39.55724 | 2.73647 | 38 ft | 13 kts | 58° |
| 2026-04-30 19:13 | 39.55773 | 2.73754 | 38 ft | 15 kts | 59° |
| 2026-04-30 19:14 | 39.55827 | 2.73867 | 38 ft | 14 kts | 58° |
| 2026-04-30 19:14 | 39.55882 | 2.73984 | 38 ft | 15 kts | 59° |
| 2026-04-30 19:14 | 39.55932 | 2.74090 | 38 ft | 14 kts | 58° |
| 2026-04-30 19:14 | 39.55977 | 2.74183 | 38 ft | 11 kts | 58° |
| 2026-04-30 19:15 | 39.56017 | 2.74252 | 38 ft | 9 kts | 34° |
| 2026-04-30 19:15 | 39.56079 | 2.74294 | 38 ft | 0 kts | 27° |
| 2026-04-30 19:15 | 39.56086 | 2.74299 | 38 ft | 2 kts | 27° |
| 2026-04-30 19:16 | 39.56104 | 2.74311 | 38 ft | 4 kts | 28° |
| 2026-04-30 19:16 | 39.56134 | 2.74332 | 38 ft | 6 kts | 29° |
| 2026-04-30 19:16 | 39.56145 | 2.74340 | 38 ft | 0 kts | 27° |
| 2026-04-30 19:18 | 39.56146 | 2.74341 | 38 ft | 1 kts | 27° |
| 2026-04-30 19:19 | 39.56156 | 2.74346 | 38 ft | 4 kts | 20° |
| 2026-04-30 19:19 | 39.56209 | 2.74338 | 38 ft | 10 kts | 334° |
| 2026-04-30 19:19 | 39.56214 | 2.74237 | 38 ft | 0 kts | 238° |
| 2026-04-30 19:21 | 39.56205 | 2.74218 | 38 ft | 17 kts | 238° |
| 2026-04-30 19:22 | 39.55596 | 2.72930 | 39 ft | 138 kts | 238° |
| 2026-04-30 19:22 | 39.53684 | 2.68981 | 938 ft | 193 kts | 236° |
| 2026-04-30 19:23 | 39.51242 | 2.64186 | 2084 ft | 225 kts | 236° |
| 2026-04-30 19:24 | 39.49511 | 2.60789 | 2851 ft | 226 kts | 236° |
| 2026-04-30 19:24 | 39.48645 | 2.59086 | 3385 ft | 226 kts | 235° |
| 2026-04-30 19:24 | 39.46912 | 2.55684 | 4640 ft | 229 kts | 236° |
| 2026-04-30 19:25 | 39.44992 | 2.50077 | 6427 ft | 244 kts | 281° |
| 2026-04-30 19:26 | 39.47106 | 2.46567 | 7457 ft | 269 kts | 326° |
| 2026-04-30 19:26 | 39.50329 | 2.43718 | 8469 ft | 287 kts | 325° |
| 2026-04-30 19:26 | 39.51976 | 2.42249 | 8938 ft | 290 kts | 324° |
| 2026-04-30 19:27 | 39.55248 | 2.39170 | 9077 ft | 290 kts | 315° |
| 2026-04-30 19:27 | 39.58017 | 2.35407 | 9611 ft | 289 kts | 313° |
| 2026-04-30 19:28 | 39.59406 | 2.33515 | 10117 ft | 291 kts | 312° |
| 2026-04-30 19:28 | 39.61796 | 2.30260 | 10961 ft | 308 kts | 311° |
| 2026-04-30 19:29 | 39.64831 | 2.26108 | 11961 ft | 326 kts | 311° |
| 2026-04-30 19:29 | 39.66411 | 2.23941 | 12482 ft | 334 kts | 311° |
| 2026-04-30 19:30 | 39.71351 | 2.17174 | 13999 ft | 350 kts | 311° |
| 2026-04-30 19:30 | 39.74741 | 2.12525 | 15106 ft | 357 kts | 311° |
| 2026-04-30 19:31 | 39.78178 | 2.07807 | 16231 ft | 362 kts | 310° |
| 2026-04-30 19:31 | 39.79916 | 2.05420 | 16793 ft | 364 kts | 310° |
| 2026-04-30 19:31 | 39.83425 | 2.00601 | 17888 ft | 369 kts | 310° |
| 2026-04-30 19:32 | 39.85193 | 1.98164 | 18430 ft | 372 kts | 310° |
| 2026-04-30 19:32 | 39.86973 | 1.95704 | 18972 ft | 375 kts | 310° |
| 2026-04-30 19:32 | 39.88718 | 1.93288 | 19529 ft | 377 kts | 310° |
| 2026-04-30 19:32 | 39.90524 | 1.90791 | 20062 ft | 380 kts | 310° |
| 2026-04-30 19:33 | 39.92343 | 1.88278 | 20594 ft | 383 kts | 310° |
| 2026-04-30 19:33 | 39.94177 | 1.85735 | 21107 ft | 386 kts | 310° |
| 2026-04-30 19:33 | 39.96015 | 1.83182 | 21589 ft | 388 kts | 310° |
| 2026-04-30 19:33 | 39.97868 | 1.80608 | 22046 ft | 391 kts | 310° |
| 2026-04-30 19:34 | 39.99831 | 1.78113 | 22501 ft | 396 kts | 317° |
| 2026-04-30 19:34 | 40.02117 | 1.76075 | 22925 ft | 403 kts | 328° |
| 2026-04-30 19:34 | 40.07351 | 1.73211 | 23750 ft | 411 kts | 335° |
| 2026-04-30 19:35 | 40.10028 | 1.71845 | 24149 ft | 413 kts | 335° |
| 2026-04-30 19:35 | 40.12708 | 1.70471 | 24516 ft | 416 kts | 335° |
| 2026-04-30 19:35 | 40.15418 | 1.69080 | 24882 ft | 418 kts | 335° |
| 2026-04-30 19:35 | 40.18132 | 1.67689 | 25239 ft | 421 kts | 335° |
| 2026-04-30 19:36 | 40.20868 | 1.66286 | 25591 ft | 423 kts | 334° |
| 2026-04-30 19:36 | 40.23611 | 1.64873 | 25938 ft | 425 kts | 334° |
| 2026-04-30 19:36 | 40.29146 | 1.62002 | 26609 ft | 430 kts | 334° |
| 2026-04-30 19:37 | 40.31930 | 1.60555 | 26922 ft | 432 kts | 334° |
| 2026-04-30 19:37 | 40.34729 | 1.59105 | 27241 ft | 434 kts | 334° |
| 2026-04-30 19:37 | 40.37545 | 1.57651 | 27550 ft | 436 kts | 334° |
| 2026-04-30 19:37 | 40.40376 | 1.56192 | 27861 ft | 438 kts | 334° |
| 2026-04-30 19:38 | 40.43222 | 1.54726 | 28170 ft | 440 kts | 334° |
| 2026-04-30 19:38 | 40.46066 | 1.53261 | 28585 ft | 439 kts | 334° |
| 2026-04-30 19:38 | 40.48904 | 1.51792 | 29016 ft | 438 kts | 334° |
| 2026-04-30 19:38 | 40.51697 | 1.50343 | 29430 ft | 437 kts | 334° |
| 2026-04-30 19:39 | 40.54513 | 1.48877 | 29846 ft | 435 kts | 334° |
| 2026-04-30 19:39 | 40.57368 | 1.47386 | 30256 ft | 435 kts | 334° |
| 2026-04-30 19:39 | 40.60131 | 1.45940 | 30674 ft | 433 kts | 334° |
| 2026-04-30 19:39 | 40.62935 | 1.44472 | 31088 ft | 432 kts | 334° |
| 2026-04-30 19:40 | 40.65727 | 1.43014 | 31475 ft | 432 kts | 334° |
| 2026-04-30 19:40 | 40.68515 | 1.41561 | 31864 ft | 431 kts | 334° |
| 2026-04-30 19:40 | 40.71326 | 1.40172 | 32214 ft | 434 kts | 340° |
| 2026-04-30 19:40 | 40.74320 | 1.39451 | 32524 ft | 440 kts | 347° |
| 2026-04-30 19:41 | 40.77350 | 1.38895 | 32864 ft | 440 kts | 347° |
| 2026-04-30 19:41 | 40.80384 | 1.38355 | 33217 ft | 440 kts | 347° |
| 2026-04-30 19:41 | 40.83419 | 1.37824 | 33579 ft | 439 kts | 347° |
| 2026-04-30 19:41 | 40.86438 | 1.37293 | 33934 ft | 438 kts | 347° |
| 2026-04-30 19:42 | 40.89464 | 1.36754 | 34100 ft | 438 kts | 347° |
| 2026-04-30 19:42 | 40.90485 | 1.36570 | 34120 ft | 440 kts | 347° |
| 2026-04-30 19:43 | 40.93644 | 1.36336 | 33768 ft | 455 kts | 3° |